Time;durP1;ratioP1;P1;durP2;ratioP2;P2;SDS_P1;SDS_P2;PMS_P1;PMS_P2;Temp;Humidity;BMP_temperature;BMP_pressure;BME280_temperature;BME280_humidity;BME280_pressure;Samples;Min_cycle;Max_cycle;Signal;HPM_P1;HPM_P2
2022/02/16 00:01:29;;;;;;;6.45;4.13;;;;;;;0.25;51.71;100057.75;5062355;28;20214;-62
2022/02/16 00:03:54;;;;;;;7.93;3.85;;;;;;;0.19;53.34;100055.06;5065856;28;20039;-62
2022/02/16 00:06:20;;;;;;;7.88;4.68;;;;;;;0.20;51.96;100054.22;5066236;28;20321;-63
2022/02/16 00:08:46;;;;;;;6.78;4.28;;;;;;;0.09;52.70;100061.59;5053280;28;20047;-63
2022/02/16 00:11:11;;;;;;;6.65;4.45;;;;;;;0.06;53.17;100052.19;5065399;28;20100;-63
2022/02/16 00:13:37;;;;;;;7.32;4.82;;;;;;;0.08;53.87;100053.06;5063106;28;20053;-62
2022/02/16 00:16:08;;;;;;;7.88;4.40;;;;;;;0.13;53.66;100048.97;5061015;28;20029;-62
2022/02/16 00:18:36;;;;;;;7.60;4.18;;;;;;;0.06;52.30;100061.47;5064660;28;20029;-61
2022/02/16 00:21:02;;;;;;;11.15;4.35;;;;;;;-0.14;52.82;100030.41;5065664;28;20321;-61
2022/02/16 00:23:28;;;;;;;9.05;4.40;;;;;;;-0.05;54.87;100030.66;5064269;28;20270;-62
2022/02/16 00:25:55;;;;;;;8.07;4.78;;;;;;;0.02;53.10;100035.09;5065859;28;20035;-62
2022/02/16 00:28:22;;;;;;;7.32;4.53;;;;;;;0.04;52.87;100030.91;5065661;28;20205;-62
2022/02/16 00:30:47;;;;;;;8.10;4.70;;;;;;;0.02;51.96;100036.78;5065879;28;20332;-60
2022/02/16 00:33:13;;;;;;;6.43;4.40;;;;;;;-0.08;54.42;100028.88;5065721;28;20024;-62
2022/02/16 00:35:39;;;;;;;9.90;4.95;;;;;;;-0.13;53.09;100020.25;5065712;28;20096;-63
2022/02/16 00:38:05;;;;;;;10.35;4.75;;;;;;;-0.07;53.26;100029.75;5065548;28;20089;-62
2022/02/16 00:40:31;;;;;;;8.70;5.32;;;;;;;-0.08;53.46;100022.94;5065672;28;20353;-62
2022/02/16 00:42:56;;;;;;;8.68;4.63;;;;;;;-0.01;52.32;100024.84;5065645;28;20029;-62
2022/02/16 00:45:22;;;;;;;10.93;5.22;;;;;;;0.04;54.17;100019.84;5065547;28;20032;-62
2022/02/16 00:47:48;;;;;;;8.93;4.50;;;;;;;-0.04;54.55;100009.47;5065403;28;20088;-62
2022/02/16 00:50:13;;;;;;;9.30;5.00;;;;;;;-0.09;53.28;100003.41;5065767;28;20028;-63
2022/02/16 00:52:39;;;;;;;8.65;4.75;;;;;;;-0.19;53.57;100002.28;5065342;28;20040;-62
2022/02/16 00:55:06;;;;;;;8.05;4.75;;;;;;;-0.17;53.75;100000.66;5065552;28;20028;-62
2022/02/16 00:57:32;;;;;;;7.15;4.90;;;;;;;-0.15;55.27;100008.34;5065368;28;20233;-62
2022/02/16 00:59:58;;;;;;;9.65;4.90;;;;;;;-0.19;54.00;99992.94;5065179;28;20033;-62
2022/02/16 01:02:28;;;;;;;9.25;5.50;;;;;;;-0.20;54.63;99998.00;5064629;28;20064;-61
2022/02/16 01:04:54;;;;;;;8.90;4.93;;;;;;;-0.23;54.19;99993.72;5063220;28;20064;-61
2022/02/16 01:07:20;;;;;;;8.10;4.60;;;;;;;-0.18;54.52;99986.19;5062571;28;20029;-61
2022/02/16 01:09:45;;;;;;;10.80;5.20;;;;;;;-0.28;54.79;99971.50;5057763;28;20029;-63
2022/02/16 01:12:11;;;;;;;8.05;5.35;;;;;;;-0.11;54.09;99984.69;5064888;28;20100;-61
2022/02/16 01:14:38;;;;;;;8.70;5.30;;;;;;;-0.26;54.68;99978.34;5064054;28;20025;-61
2022/02/16 01:17:03;;;;;;;9.70;5.25;;;;;;;-0.30;54.66;99974.00;5064938;28;20021;-62
2022/02/16 01:19:29;;;;;;;6.90;4.55;;;;;;;-0.40;56.17;99974.56;5064161;28;20336;-62
2022/02/16 01:21:54;;;;;;;9.57;5.40;;;;;;;-0.37;55.35;99967.88;5064967;28;20037;-63
2022/02/16 01:24:20;;;;;;;7.85;4.82;;;;;;;-0.32;54.97;99974.78;5064782;28;20036;-60
2022/02/16 01:26:46;;;;;;;9.90;5.50;;;;;;;-0.46;55.27;99967.63;5063507;28;20021;-63
2022/02/16 01:29:11;;;;;;;8.80;4.88;;;;;;;-0.36;54.61;99968.75;5064646;28;20314;-62
2022/02/16 01:31:37;;;;;;;9.35;5.28;;;;;;;-0.44;54.99;99955.81;5064620;28;20318;-63
2022/02/16 01:34:03;;;;;;;6.90;4.75;;;;;;;-0.33;56.20;99961.19;5064457;28;20091;-62
2022/02/16 01:36:28;;;;;;;10.40;4.85;;;;;;;-0.55;55.32;99967.38;5064397;28;20036;-63
2022/02/16 01:38:54;;;;;;;8.80;4.93;;;;;;;-0.55;56.11;99955.50;5063218;28;20095;-63
2022/02/16 01:41:19;;;;;;;10.20;5.63;;;;;;;-0.63;56.71;99956.13;5063051;28;20029;-63
2022/02/16 01:43:49;;;;;;;8.45;5.53;;;;;;;-0.64;56.02;99955.28;5064708;28;20057;-62
2022/02/16 01:46:15;;;;;;;7.85;4.85;;;;;;;-0.48;56.30;99963.34;5063408;28;20266;-64
2022/02/16 01:48:41;;;;;;;8.63;5.32;;;;;;;-0.63;55.93;99951.88;5064416;28;20035;-62
2022/02/16 01:51:07;;;;;;;11.88;4.95;;;;;;;-0.52;56.38;99954.75;5064140;28;20016;-61
2022/02/16 01:53:33;;;;;;;13.60;5.75;;;;;;;-0.57;56.71;99954.63;5063781;28;20025;-62
2022/02/16 01:55:59;;;;;;;8.55;5.18;;;;;;;-0.59;56.18;99951.16;5064126;28;20016;-63
2022/02/16 01:58:25;;;;;;;8.70;5.10;;;;;;;-0.71;56.54;99948.28;5063757;28;20025;-64
2022/02/16 02:00:50;;;;;;;9.23;5.63;;;;;;;-0.76;56.08;99940.50;5063929;28;20032;-62
2022/02/16 02:03:16;;;;;;;9.77;5.80;;;;;;;-0.93;56.55;99929.84;5063759;28;20048;-61
2022/02/16 02:05:41;;;;;;;8.82;5.38;;;;;;;-0.85;57.13;99936.88;5062661;28;20853;-61
2022/02/16 02:08:09;;;;;;;8.70;5.40;;;;;;;-0.77;57.06;99933.72;5060087;28;20052;-62
2022/02/16 02:10:35;;;;;;;10.77;5.53;;;;;;;-0.82;56.67;99937.81;5063836;28;20052;-62
2022/02/16 02:13:01;;;;;;;11.10;5.40;;;;;;;-0.83;56.11;99938.59;5063940;28;20025;-63
2022/02/16 02:15:26;;;;;;;11.35;5.63;;;;;;;-0.96;57.04;99926.38;5063668;28;20024;-61
2022/02/16 02:17:52;;;;;;;9.32;5.80;;;;;;;-0.96;58.10;99927.22;5063494;28;20033;-62
2022/02/16 02:20:26;;;;;;;10.07;5.72;;;;;;;-1.44;58.26;99881.78;5062448;28;20029;-63
2022/02/16 02:22:53;;;;;;;9.65;5.68;;;;;;;-1.02;56.88;99937.22;5063128;28;20029;-62
2022/02/16 02:25:20;;;;;;;11.68;5.28;;;;;;;-1.08;57.98;99931.97;5063319;28;20021;-62
2022/02/16 02:27:46;;;;;;;10.80;5.30;;;;;;;-1.00;58.16;99917.78;5063322;28;20020;-62
2022/02/16 02:30:12;;;;;;;10.63;5.85;;;;;;;-1.01;57.85;99925.38;5063418;28;20028;-64
2022/02/16 02:32:46;;;;;;;9.65;5.65;;;;;;;-1.01;56.86;99930.44;5063456;28;20035;-63
2022/02/16 02:35:14;;;;;;;8.15;5.63;;;;;;;-1.45;57.33;99858.06;5063287;28;20088;-64
2022/02/16 02:37:40;;;;;;;11.00;5.68;;;;;;;-1.10;57.25;99929.38;5063478;28;20253;-64
2022/02/16 02:40:08;;;;;;;12.02;5.68;;;;;;;-1.09;57.97;99941.25;5063487;28;20052;-63
2022/02/16 02:42:38;;;;;;;9.23;5.60;;;;;;;-1.17;57.35;99936.78;5062079;28;20029;-62
2022/02/16 02:45:05;;;;;;;10.30;5.78;;;;;;;-1.15;58.15;99925.84;5063206;28;20024;-61
2022/02/16 02:47:32;;;;;;;10.25;6.28;;;;;;;-1.22;57.76;99934.94;5062189;28;20033;-61
2022/02/16 02:49:58;;;;;;;8.45;5.40;;;;;;;-1.16;58.35;99933.41;5062632;28;20033;-61
2022/02/16 02:52:23;;;;;;;8.93;5.57;;;;;;;-1.30;58.02;99933.84;5062675;28;20039;-61
2022/02/16 02:54:49;;;;;;;11.23;5.93;;;;;;;-1.35;59.14;99925.25;5062357;28;20047;-62
2022/02/16 02:57:14;;;;;;;11.75;6.15;;;;;;;-1.31;58.46;99916.03;5062979;28;20033;-62
2022/02/16 02:59:40;;;;;;;8.10;5.30;;;;;;;-1.36;58.41;99926.03;5061432;28;20017;-64
2022/02/16 03:02:05;;;;;;;11.23;6.13;;;;;;;-1.34;59.00;99914.28;5062829;28;20041;-62
2022/02/16 03:04:31;;;;;;;9.27;5.68;;;;;;;-1.27;59.96;99913.66;5063036;28;20063;-62
2022/02/16 03:06:57;;;;;;;10.40;6.03;;;;;;;-1.44;59.25;99902.97;5062990;28;20025;-63
2022/02/16 03:09:22;;;;;;;8.38;5.53;;;;;;;-1.42;58.29;99891.16;5062507;28;20322;-63
2022/02/16 03:11:48;;;;;;;9.85;5.43;;;;;;;-1.41;58.47;99907.25;5062597;28;20035;-63
2022/02/16 03:14:13;;;;;;;10.18;5.55;;;;;;;-1.29;59.18;99892.41;5062421;28;20021;-63
2022/02/16 03:16:39;;;;;;;13.10;6.35;;;;;;;-1.46;59.30;99908.81;5062034;28;20218;-63
2022/02/16 03:19:05;;;;;;;12.13;5.82;;;;;;;-1.36;59.16;99903.19;5062533;28;20363;-63
2022/02/16 03:21:31;;;;;;;9.85;5.93;;;;;;;-1.42;59.07;99896.25;5062379;28;20303;-62
2022/02/16 03:23:56;;;;;;;8.95;5.50;;;;;;;-1.50;60.02;99894.28;5062321;28;20021;-61
2022/02/16 03:26:22;;;;;;;19.38;8.70;;;;;;;-1.54;59.31;99895.00;5062462;28;20237;-62
2022/02/16 03:28:48;;;;;;;11.88;6.25;;;;;;;-1.39;60.14;99903.09;5061637;28;20066;-62
2022/02/16 03:31:14;;;;;;;8.82;5.80;;;;;;;-1.55;59.46;99889.06;5061373;28;20308;-62
2022/02/16 03:33:40;;;;;;;10.48;5.88;;;;;;;-1.46;60.01;99899.50;5061112;28;20262;-62
2022/02/16 03:36:05;;;;;;;8.43;5.65;;;;;;;-1.56;60.42;99893.28;5062187;28;20033;-61
2022/02/16 03:38:31;;;;;;;9.98;6.78;;;;;;;-1.64;59.74;99891.31;5065103;28;20029;-62
2022/02/16 03:40:57;;;;;;;14.52;7.20;;;;;;;-1.65;60.08;99890.47;5066604;28;20036;-61
2022/02/16 03:43:23;;;;;;;9.13;5.82;;;;;;;-1.49;60.08;99898.56;5066460;28;20017;-61
2022/02/16 03:45:48;;;;;;;9.13;5.60;;;;;;;-1.60;61.24;99896.53;5066363;28;20021;-62
2022/02/16 03:48:14;;;;;;;12.85;6.40;;;;;;;-1.46;59.60;99893.56;5066337;28;20214;-61
2022/02/16 03:50:40;;;;;;;10.50;6.38;;;;;;;-1.48;61.25;99885.91;5066287;28;20057;-62
2022/02/16 03:53:05;;;;;;;11.00;6.43;;;;;;;-1.52;60.98;99888.31;5065313;28;20048;-62
2022/02/16 03:55:31;;;;;;;13.93;6.55;;;;;;;-1.57;60.18;99886.50;5066308;28;20036;-61
2022/02/16 03:57:56;;;;;;;13.65;6.50;;;;;;;-1.51;60.31;99892.56;5065766;28;20035;-61
2022/02/16 04:00:23;;;;;;;10.50;6.35;;;;;;;-1.48;60.04;99875.75;5065629;28;20039;-62
2022/02/16 04:02:49;;;;;;;11.30;6.68;;;;;;;-1.61;60.66;99881.25;5066003;28;20041;-62
2022/02/16 04:05:14;;;;;;;13.38;7.32;;;;;;;-1.71;60.52;99877.59;5066175;28;20020;-64
2022/02/16 04:07:40;;;;;;;16.52;8.00;;;;;;;-1.77;61.95;99892.59;5061984;28;20373;-63
2022/02/16 04:10:07;;;;;;;12.77;7.55;;;;;;;-1.76;60.92;99884.19;5064969;28;20079;-62
2022/02/16 04:12:33;;;;;;;12.27;7.43;;;;;;;-1.64;60.44;99891.31;5071569;28;20029;-63
2022/02/16 04:14:59;;;;;;;14.23;7.72;;;;;;;-1.46;60.99;99883.41;5065972;28;20067;-63
2022/02/16 04:17:24;;;;;;;12.00;7.47;;;;;;;-1.77;61.51;99841.84;5066141;28;20299;-63
2022/02/16 04:19:50;;;;;;;13.27;6.97;;;;;;;-1.58;60.65;99873.75;5064723;28;20387;-63
2022/02/16 04:22:17;;;;;;;14.20;6.75;;;;;;;-1.69;61.51;99868.34;5065679;28;20225;-63
2022/02/16 04:24:44;;;;;;;13.52;6.65;;;;;;;-1.63;61.31;99878.66;5065386;28;20147;-63
2022/02/16 04:27:10;;;;;;;12.82;6.95;;;;;;;-2.04;61.09;99822.41;5065350;28;20083;-62
2022/02/16 04:29:36;;;;;;;11.80;6.95;;;;;;;-1.74;62.38;99872.41;5065160;28;20070;-62
2022/02/16 04:32:02;;;;;;;13.57;6.55;;;;;;;-1.84;61.85;99860.25;5065432;28;20064;-63
2022/02/16 04:34:28;;;;;;;13.45;7.13;;;;;;;-1.69;62.21;99857.34;5065115;28;20031;-62
2022/02/16 04:36:53;;;;;;;13.52;7.25;;;;;;;-1.71;62.22;99859.81;5065554;28;20025;-63
2022/02/16 04:39:19;;;;;;;12.57;7.35;;;;;;;-1.79;61.46;99862.09;5065323;28;20035;-63
2022/02/16 04:41:44;;;;;;;14.18;7.15;;;;;;;-1.61;61.71;99871.09;5065549;28;20055;-62
2022/02/16 04:44:10;;;;;;;13.68;7.18;;;;;;;-1.66;62.00;99873.50;5065413;28;20033;-62
2022/02/16 04:46:36;;;;;;;14.95;6.72;;;;;;;-1.64;62.05;99876.09;5064755;28;20033;-62
2022/02/16 04:49:02;;;;;;;14.07;7.20;;;;;;;-1.66;62.02;99863.34;5062445;28;20128;-63
2022/02/16 04:51:28;;;;;;;13.55;7.60;;;;;;;-1.79;62.92;99868.88;5063963;28;20107;-62
2022/02/16 04:53:53;;;;;;;10.40;6.88;;;;;;;-1.64;62.43;99865.94;5064644;28;20371;-63
2022/02/16 04:56:19;;;;;;;12.13;6.82;;;;;;;-1.63;62.15;99868.50;5064648;28;20035;-62
2022/02/16 04:58:45;;;;;;;10.95;6.72;;;;;;;-1.56;62.77;99872.97;5064755;28;20067;-63
2022/02/16 05:01:10;;;;;;;16.40;7.75;;;;;;;-1.53;62.77;99868.81;5064431;28;20024;-63
2022/02/16 05:03:36;;;;;;;13.07;7.15;;;;;;;-1.52;63.32;99868.84;5064244;28;20091;-63
2022/02/16 05:06:02;;;;;;;16.17;7.80;;;;;;;-1.60;62.74;99870.28;5064699;28;20029;-62
2022/02/16 05:08:27;;;;;;;13.15;7.20;;;;;;;-1.64;62.39;99871.88;5062691;28;20021;-64
2022/02/16 05:10:53;;;;;;;13.65;7.53;;;;;;;-1.56;62.75;99877.19;5064519;28;20108;-62
2022/02/16 05:13:19;;;;;;;14.30;7.80;;;;;;;-1.54;63.10;99880.63;5064846;28;20025;-62
2022/02/16 05:15:44;;;;;;;12.32;7.50;;;;;;;-1.50;62.60;99877.38;5064474;28;20118;-63
2022/02/16 05:18:10;;;;;;;13.27;7.57;;;;;;;-1.59;63.21;99884.72;5064683;28;20056;-63
2022/02/16 05:20:35;;;;;;;15.23;8.10;;;;;;;-1.56;62.85;99882.28;5064398;28;20035;-63
2022/02/16 05:23:04;;;;;;;19.00;8.70;;;;;;;-1.48;61.95;99885.03;5064517;28;20025;-62
2022/02/16 05:25:30;;;;;;;14.20;7.35;;;;;;;-1.48;62.96;99878.28;5064302;28;20322;-62
2022/02/16 05:27:55;;;;;;;13.40;7.95;;;;;;;-1.42;62.71;99885.22;5064291;28;20221;-62
2022/02/16 05:30:21;;;;;;;14.73;8.85;;;;;;;-1.53;62.82;99878.97;5064025;28;20025;-61
2022/02/16 05:32:47;;;;;;;13.90;8.00;;;;;;;-1.47;62.47;99884.22;5064421;28;20029;-61
2022/02/16 05:35:12;;;;;;;14.77;8.98;;;;;;;-1.51;62.48;99879.84;5063868;28;20029;-61
2022/02/16 05:37:39;;;;;;;14.38;8.05;;;;;;;-1.31;63.71;99888.97;5064054;28;20074;-61
2022/02/16 05:40:05;;;;;;;12.60;7.75;;;;;;;-1.33;62.01;99889.72;5064018;28;20108;-61
2022/02/16 05:42:31;;;;;;;14.75;8.48;;;;;;;-1.26;62.81;99896.72;5062641;28;20330;-61
2022/02/16 05:44:57;;;;;;;17.27;8.65;;;;;;;-1.27;62.21;99892.44;5064108;28;20044;-61
2022/02/16 05:47:22;;;;;;;14.32;8.65;;;;;;;-1.34;62.03;99901.56;5063886;28;20040;-62
2022/02/16 05:49:48;;;;;;;19.02;8.82;;;;;;;-1.26;62.92;99897.56;5064027;28;20060;-62
2022/02/16 05:52:14;;;;;;;15.05;8.73;;;;;;;-1.30;62.82;99898.28;5064558;28;20199;-61
2022/02/16 05:54:39;;;;;;;16.70;9.35;;;;;;;-1.23;62.29;99907.84;5064058;28;20266;-61
2022/02/16 05:57:08;;;;;;;15.73;8.90;;;;;;;-1.28;62.58;99891.59;5063850;28;20075;-64
2022/02/16 05:59:35;;;;;;;14.80;8.50;;;;;;;-1.27;62.57;99895.84;5063561;28;20044;-63
2022/02/16 06:02:03;;;;;;;17.80;8.63;;;;;;;-1.26;62.30;99906.88;5062253;28;20043;-62
2022/02/16 06:04:33;;;;;;;18.45;8.80;;;;;;;-1.32;63.33;99902.47;5063785;28;20056;-61
2022/02/16 06:06:59;;;;;;;15.98;9.20;;;;;;;-1.17;61.93;99896.13;5063513;28;20029;-61
2022/02/16 06:09:25;;;;;;;15.98;9.75;;;;;;;-1.25;61.81;99888.28;5057314;28;20206;-61
2022/02/16 06:11:51;;;;;;;18.92;9.32;;;;;;;-1.07;62.22;99890.47;5063606;28;20025;-62
2022/02/16 06:14:16;;;;;;;17.10;9.95;;;;;;;-0.99;61.23;99896.66;5063510;28;20044;-60
2022/02/16 06:16:43;;;;;;;17.58;8.75;;;;;;;-1.13;62.61;99888.63;5063655;28;20021;-60
2022/02/16 06:19:08;;;;;;;13.98;8.80;;;;;;;-1.16;62.22;99890.22;5063541;28;20028;-61
2022/02/16 06:21:34;;;;;;;22.48;10.32;;;;;;;-1.06;62.32;99892.22;5063114;28;20029;-65
2022/02/16 06:24:00;;;;;;;20.02;9.50;;;;;;;-0.89;63.18;99890.16;5062150;28;20092;-62
2022/02/16 06:26:26;;;;;;;17.92;9.70;;;;;;;-0.83;62.63;99879.28;5063319;28;20025;-62
2022/02/16 06:28:51;;;;;;;14.65;9.57;;;;;;;-0.94;61.75;99884.94;5063336;28;20054;-62
2022/02/16 06:31:17;;;;;;;14.35;9.07;;;;;;;-0.94;63.36;99864.59;5063300;28;20332;-61
2022/02/16 06:33:42;;;;;;;14.65;8.68;;;;;;;-0.87;61.89;99869.03;5062966;28;20021;-61
2022/02/16 06:36:08;;;;;;;17.50;8.90;;;;;;;-0.83;62.66;99862.34;5063138;28;20036;-62
2022/02/16 06:38:33;;;;;;;17.17;9.38;;;;;;;-0.91;62.46;99858.75;5063242;28;20055;-62
2022/02/16 06:40:59;;;;;;;14.85;9.45;;;;;;;-0.78;63.29;99860.78;5062671;28;20278;-63
2022/02/16 06:43:24;;;;;;;17.42;8.98;;;;;;;-0.94;61.84;99853.56;5061342;28;20032;-62
2022/02/16 06:45:50;;;;;;;17.25;8.85;;;;;;;-0.81;61.67;99864.91;5062391;28;20032;-62
2022/02/16 06:48:16;;;;;;;15.93;9.32;;;;;;;-0.89;62.53;99859.63;5061432;28;20037;-62
2022/02/16 06:50:41;;;;;;;19.90;10.00;;;;;;;-0.90;61.94;99857.91;5062330;28;20021;-64
2022/02/16 06:53:07;;;;;;;19.83;9.85;;;;;;;-0.73;62.58;99858.38;5062824;28;20351;-62
2022/02/16 06:55:33;;;;;;;23.50;10.80;;;;;;;-0.71;62.91;99836.41;5062627;28;20028;-63
2022/02/16 06:57:59;;;;;;;16.80;9.60;;;;;;;-0.70;61.88;99835.56;5061461;28;20031;-61
2022/02/16 07:00:24;;;;;;;16.50;9.15;;;;;;;-0.59;62.62;99851.97;5063996;28;20032;-61
2022/02/16 07:02:50;;;;;;;18.15;9.90;;;;;;;-0.81;61.71;99844.59;5061587;28;20040;-62
2022/02/16 07:05:16;;;;;;;20.13;9.80;;;;;;;-0.65;61.66;99845.88;5062136;28;20059;-62
2022/02/16 07:07:41;;;;;;;16.90;9.68;;;;;;;-0.78;62.37;99835.38;5061092;28;20029;-63
2022/02/16 07:10:08;;;;;;;18.58;9.63;;;;;;;-0.74;62.65;99847.34;5062721;28;20025;-61
2022/02/16 07:12:36;;;;;;;21.75;11.27;;;;;;;-0.95;62.41;99775.59;5061614;28;20024;-61
2022/02/16 07:15:02;;;;;;;18.52;10.65;;;;;;;-0.24;61.51;99838.44;5062330;28;20105;-61
2022/02/16 07:17:28;;;;;;;18.50;9.90;;;;;;;-0.24;61.88;99839.28;5062016;28;20020;-61
2022/02/16 07:19:54;;;;;;;16.55;10.38;;;;;;;-0.01;61.28;99837.31;5062234;28;20037;-61
2022/02/16 07:22:20;;;;;;;19.77;10.23;;;;;;;0.11;60.62;99830.78;5061927;28;20337;-61
2022/02/16 07:24:46;;;;;;;20.52;10.18;;;;;;;0.72;59.29;99828.72;5062197;28;20021;-62
2022/02/16 07:27:12;;;;;;;19.00;9.82;;;;;;;1.50;56.27;99825.94;5062108;28;20104;-62
2022/02/16 07:29:38;;;;;;;19.60;11.00;;;;;;;1.35;56.11;99821.41;5062078;28;20025;-63
2022/02/16 07:32:04;;;;;;;19.42;10.25;;;;;;;1.84;55.47;99819.72;5062278;28;20025;-63
2022/02/16 07:34:31;;;;;;;16.63;10.30;;;;;;;2.68;53.18;99821.78;5062533;28;20032;-63
2022/02/16 07:37:01;;;;;;;16.02;9.60;;;;;;;3.26;53.14;99813.91;5062018;28;20036;-64
2022/02/16 07:39:27;;;;;;;18.15;10.48;;;;;;;3.25;51.50;99807.06;5062115;28;20025;-62
2022/02/16 07:41:56;;;;;;;16.73;11.40;;;;;;;3.64;51.68;99794.63;5061859;28;20116;-62
2022/02/16 07:44:22;;;;;;;18.85;10.30;;;;;;;4.00;51.74;99812.84;5062480;28;20325;-62
2022/02/16 07:46:48;;;;;;;20.73;11.68;;;;;;;3.97;50.70;99811.94;5062243;28;20107;-61
2022/02/16 07:49:14;;;;;;;18.17;10.50;;;;;;;4.32;50.49;99808.78;5062431;28;20017;-62
2022/02/16 07:51:39;;;;;;;20.60;10.60;;;;;;;4.54;49.88;99814.03;5062051;28;20070;-61
2022/02/16 07:54:05;;;;;;;18.42;10.30;;;;;;;4.25;48.58;99799.34;5061988;28;20056;-61
2022/02/16 07:56:34;;;;;;;18.17;11.07;;;;;;;4.06;47.98;99811.19;5062126;28;20078;-63
2022/02/16 07:59:00;;;;;;;18.85;10.88;;;;;;;4.05;48.26;99808.63;5061949;28;20277;-63
2022/02/16 08:01:26;;;;;;;20.00;11.15;;;;;;;4.14;47.93;99811.22;5060993;28;20091;-62
2022/02/16 08:03:51;;;;;;;24.08;11.10;;;;;;;4.65;47.56;99806.38;5062190;28;20258;-62
2022/02/16 08:06:17;;;;;;;19.27;11.15;;;;;;;4.26;48.40;99813.00;5062441;28;20047;-62
2022/02/16 08:08:43;;;;;;;19.63;11.20;;;;;;;3.51;48.92;99803.91;5061242;28;20021;-63
2022/02/16 08:11:08;;;;;;;21.98;11.63;;;;;;;2.91;51.84;99819.50;5062015;28;20066;-62
2022/02/16 08:13:34;;;;;;;17.67;11.32;;;;;;;3.39;52.17;99799.53;5062294;28;20036;-62
2022/02/16 08:15:59;;;;;;;20.27;11.00;;;;;;;3.53;50.52;99809.88;5062451;28;20024;-62
2022/02/16 08:18:27;;;;;;;22.88;11.50;;;;;;;3.98;50.22;99800.84;5062266;28;20054;-62
2022/02/16 08:20:52;;;;;;;17.38;11.43;;;;;;;4.30;50.50;99802.78;5061766;28;20253;-62
2022/02/16 08:23:18;;;;;;;19.83;12.00;;;;;;;4.57;49.34;99790.94;5061527;28;20087;-63
2022/02/16 08:25:44;;;;;;;24.75;11.43;;;;;;;4.17;49.79;99783.03;5065984;28;20348;-63
2022/02/16 08:28:10;;;;;;;22.77;12.07;;;;;;;4.87;49.65;99783.38;5064769;28;20024;-63
2022/02/16 08:30:36;;;;;;;19.17;11.73;;;;;;;5.52;48.36;99789.50;5065678;28;20028;-63
2022/02/16 08:33:02;;;;;;;20.77;12.30;;;;;;;5.25;47.50;99788.59;5065563;28;20040;-63
2022/02/16 08:35:28;;;;;;;22.45;12.90;;;;;;;4.45;49.16;99784.06;5064657;28;20199;-62
2022/02/16 08:37:54;;;;;;;21.20;12.43;;;;;;;4.77;48.80;99791.03;5065671;28;20297;-62
2022/02/16 08:40:22;;;;;;;19.52;12.85;;;;;;;5.31;49.80;99783.47;5064383;28;20036;-62
2022/02/16 08:42:47;;;;;;;20.73;12.05;;;;;;;5.70;49.13;99792.09;5065525;28;20041;-61
2022/02/16 08:45:13;;;;;;;20.48;11.70;;;;;;;5.38;47.20;99792.06;5065467;28;20352;-63
2022/02/16 08:47:39;;;;;;;20.85;12.38;;;;;;;5.79;48.94;99790.38;5065326;28;20024;-63
2022/02/16 08:50:05;;;;;;;21.13;14.40;;;;;;;5.67;48.22;99786.06;5065314;28;20041;-62
2022/02/16 08:52:31;;;;;;;24.33;13.57;;;;;;;6.23;47.86;99784.34;5065923;28;20310;-62
2022/02/16 08:54:57;;;;;;;19.85;13.00;;;;;;;5.82;47.45;99780.94;5066207;28;20067;-61
2022/02/16 08:57:24;;;;;;;21.45;13.63;;;;;;;5.56;47.91;99773.25;5064909;28;20033;-64
2022/02/16 08:59:50;;;;;;;27.23;13.52;;;;;;;5.01;49.15;99714.97;5063319;28;20090;-63
2022/02/16 09:02:16;;;;;;;26.15;14.38;;;;;;;5.92;48.30;99768.09;5064505;28;20380;-63
2022/02/16 09:04:42;;;;;;;25.13;15.00;;;;;;;5.72;47.74;99770.69;5063158;28;20033;-64
2022/02/16 09:09:52;;;;;;;21.17;12.55;;;;;;;6.30;46.82;99767.19;5052873;28;20028;-62
2022/02/16 09:12:17;;;;;;;22.70;14.27;;;;;;;5.82;48.05;99762.09;5064676;28;20264;-63
2022/02/16 09:14:43;;;;;;;22.83;13.07;;;;;;;5.70;48.70;99768.09;5065126;28;20183;-63
2022/02/16 09:17:09;;;;;;;20.23;13.63;;;;;;;5.74;48.85;99750.97;5064679;28;20093;-62
2022/02/16 09:19:35;;;;;;;20.33;13.52;;;;;;;5.61;48.31;99765.53;5065037;28;20037;-60
2022/02/16 09:22:01;;;;;;;21.85;13.05;;;;;;;5.65;50.31;99760.38;5064701;28;20040;-61
2022/02/16 09:24:27;;;;;;;21.77;12.95;;;;;;;5.72;50.47;99752.69;5064589;28;20070;-61
2022/02/16 09:26:53;;;;;;;23.85;13.93;;;;;;;6.00;47.69;99753.53;5064716;28;20257;-61
2022/02/16 09:29:19;;;;;;;22.60;14.27;;;;;;;6.07;48.47;99744.97;5064721;28;20247;-61
2022/02/16 09:31:47;;;;;;;24.38;13.30;;;;;;;6.43;47.61;99744.84;5064722;28;20029;-61
2022/02/16 09:34:13;;;;;;;23.35;13.75;;;;;;;6.29;47.40;99750.91;5064529;28;20083;-61
2022/02/16 09:36:39;;;;;;;20.65;13.25;;;;;;;6.88;48.02;99743.81;5063988;28;20066;-63
2022/02/16 09:39:04;;;;;;;21.75;13.27;;;;;;;6.50;47.40;99749.09;5046916;28;20017;-62
2022/02/16 09:41:31;;;;;;;23.80;14.10;;;;;;;6.00;47.41;99746.69;5064346;28;20217;-63
2022/02/16 09:44:00;;;;;;;22.50;13.75;;;;;;;5.96;48.06;99750.09;5064252;28;20150;-61
2022/02/16 09:46:27;;;;;;;21.92;13.57;;;;;;;5.84;49.46;99742.38;5063061;28;20051;-62
2022/02/16 09:48:53;;;;;;;22.65;14.02;;;;;;;4.85;50.75;99747.47;5064103;28;20029;-61
2022/02/16 09:51:19;;;;;;;23.42;13.57;;;;;;;4.73;51.26;99740.59;5062963;28;20429;-61
2022/02/16 09:53:45;;;;;;;24.15;13.82;;;;;;;5.04;52.27;99743.22;5062581;28;20021;-61
2022/02/16 09:56:11;;;;;;;27.83;14.05;;;;;;;4.78;51.84;99731.19;5063863;28;20044;-61
2022/02/16 09:58:37;;;;;;;20.00;13.25;;;;;;;3.90;53.56;99724.81;5063218;28;20035;-62
2022/02/16 10:01:08;;;;;;;20.08;13.43;;;;;;;3.78;53.87;99656.44;5063576;28;20024;-61
2022/02/16 10:03:35;;;;;;;21.67;14.35;;;;;;;4.16;53.74;99671.13;5063540;28;20086;-62
2022/02/16 10:06:02;;;;;;;24.35;14.45;;;;;;;4.26;52.91;99702.78;5063724;28;20097;-61
2022/02/16 10:08:57;;;;;;;25.90;14.20;;;;;;;4.26;53.49;99706.22;5054985;28;20041;-61
2022/02/16 10:11:22;;;;;;;30.88;14.50;;;;;;;3.67;54.96;99705.00;5046692;28;20033;-63
2022/02/16 10:13:48;;;;;;;28.38;14.55;;;;;;;4.12;54.33;99707.84;5063995;28;20260;-63
2022/02/16 10:16:30;;;;;;;21.40;14.00;;;;;;;3.95;55.64;99721.41;5062940;28;20029;-62
2022/02/16 10:18:57;;;;;;;26.30;14.02;;;;;;;3.73;55.39;99707.59;5063920;28;20021;-63
2022/02/16 10:21:23;;;;;;;28.13;15.75;;;;;;;3.60;55.37;99698.97;5063737;28;20028;-62
2022/02/16 10:23:50;;;;;;;22.90;14.35;;;;;;;3.97;56.62;99695.81;5062709;28;20028;-62
2022/02/16 10:26:16;;;;;;;27.67;15.05;;;;;;;4.18;55.71;99701.91;5063302;28;20063;-61
2022/02/16 10:28:46;;;;;;;25.85;15.35;;;;;;;4.12;55.04;99702.72;5063423;28;20296;-62
2022/02/16 10:31:12;;;;;;;27.48;15.27;;;;;;;4.05;54.27;99693.31;5063279;28;20108;-62
2022/02/16 10:33:46;;;;;;;25.08;14.70;;;;;;;3.75;55.76;99697.41;5063046;28;20025;-62
2022/02/16 10:36:20;;;;;;;24.50;14.77;;;;;;;3.72;55.87;99692.22;5063184;28;20059;-63
2022/02/16 10:39:06;;;;;;;24.98;15.52;;;;;;;3.66;56.17;99674.28;5061835;28;20051;-62
2022/02/16 10:41:47;;;;;;;27.40;15.65;;;;;;;3.52;57.03;99680.16;5062317;28;20352;-62
2022/02/16 10:44:22;;;;;;;25.13;15.30;;;;;;;3.49;56.87;99677.56;5063197;28;20187;-63
2022/02/16 10:47:01;;;;;;;28.88;16.38;;;;;;;3.28;57.98;99616.88;5063065;28;20035;-62
2022/02/16 10:49:28;;;;;;;30.02;16.88;;;;;;;3.69;58.06;99669.16;5063262;28;20036;-62
2022/02/16 10:52:08;;;;;;;26.23;15.90;;;;;;;3.87;57.58;99671.00;5062203;28;20036;-62
2022/02/16 10:54:34;;;;;;;24.67;16.50;;;;;;;3.71;57.86;99652.13;5063237;28;20322;-62
2022/02/16 10:57:00;;;;;;;27.02;16.02;;;;;;;3.61;58.14;99646.94;5063293;28;20032;-62
2022/02/16 10:59:26;;;;;;;24.33;15.13;;;;;;;3.65;57.94;99659.75;5062803;28;20325;-62
2022/02/16 11:01:52;;;;;;;25.65;16.05;;;;;;;3.65;57.89;99652.06;5062917;28;20048;-62
2022/02/16 11:04:18;;;;;;;25.95;16.65;;;;;;;3.87;57.96;99638.53;5062828;28;20071;-62
2022/02/16 11:06:45;;;;;;;28.52;17.38;;;;;;;3.68;57.36;99641.84;5062707;28;20033;-63
2022/02/16 11:09:23;;;;;;;26.17;16.20;;;;;;;3.40;57.44;99580.25;5058841;28;20111;-63
2022/02/16 11:11:51;;;;;;;27.85;16.85;;;;;;;3.84;58.15;99630.00;5062640;28;20025;-61
2022/02/16 11:14:18;;;;;;;28.02;17.85;;;;;;;3.83;57.20;99630.84;5062872;28;20096;-63
2022/02/16 11:16:48;;;;;;;25.92;17.00;;;;;;;3.46;57.76;99623.78;5062722;28;20094;-63
2022/02/16 11:19:23;;;;;;;27.60;18.92;;;;;;;3.35;58.11;99559.75;5062843;28;20035;-63
2022/02/16 11:22:01;;;;;;;27.85;18.42;;;;;;;3.43;58.02;99618.66;5062435;28;20043;-62
2022/02/16 11:24:33;;;;;;;30.63;16.63;;;;;;;3.59;58.92;99615.34;5062516;28;20024;-63
2022/02/16 11:26:59;;;;;;;;;;;;;;;3.73;59.00;99609.44;5063201;28;20059;-61